createdAt,value
2023-03-01T00:01:37.062Z,1.85
2023-03-01T00:04:03.547Z,5.05
2023-03-01T00:06:30.330Z,2.95
2023-03-01T00:08:57.098Z,2.55
2023-03-01T00:11:24.758Z,2.65
2023-03-01T00:13:52.975Z,4.28
2023-03-01T00:16:20.949Z,3.35
2023-03-01T00:18:47.554Z,2.97
2023-03-01T00:21:14.256Z,6.60
2023-03-01T00:23:40.903Z,2.40
2023-03-01T00:26:08.585Z,3.35
2023-03-01T00:28:35.275Z,6.07
2023-03-01T00:31:05.675Z,7.30
2023-03-01T00:33:32.374Z,1.98
2023-03-01T00:35:59.768Z,2.08
2023-03-01T00:38:26.346Z,3.83
2023-03-01T00:40:52.896Z,4.35
2023-03-01T00:43:19.767Z,3.63
2023-03-01T00:45:46.352Z,2.38
2023-03-01T00:48:13.058Z,5.93
2023-03-01T00:50:39.865Z,5.20
2023-03-01T00:53:06.553Z,6.53
2023-03-01T00:55:33.094Z,4.25
2023-03-01T00:57:59.604Z,7.93
2023-03-01T01:00:28.577Z,2.47
2023-03-01T01:02:55.149Z,5.30
2023-03-01T01:05:21.906Z,4.45
2023-03-01T01:07:49.338Z,3.78
2023-03-01T01:10:18.146Z,4.45
2023-03-01T01:12:45.637Z,3.03
2023-03-01T01:15:14.812Z,5.93
2023-03-01T01:17:41.824Z,1.98
2023-03-01T01:20:08.807Z,1.67
2023-03-01T01:22:35.273Z,4.60
2023-03-01T01:25:01.740Z,1.63
2023-03-01T01:27:28.258Z,1.60
2023-03-01T01:29:54.749Z,2.53
2023-03-01T01:32:21.253Z,1.85
2023-03-01T01:34:47.774Z,4.63
2023-03-01T01:37:14.285Z,2.20
2023-03-01T01:39:40.774Z,4.53
2023-03-01T01:42:07.341Z,2.75
2023-03-01T01:44:34.796Z,1.23
2023-03-01T01:47:27.403Z,3.08
2023-03-01T01:49:55.583Z,3.10
2023-03-01T01:52:22.143Z,2.15
2023-03-01T01:54:53.165Z,3.17
2023-03-01T01:57:22.587Z,3.65
2023-03-01T01:59:52.430Z,1.95
2023-03-01T02:02:19.121Z,1.10
2023-03-01T02:04:45.954Z,0.80
2023-03-01T02:07:16.898Z,1.30
2023-03-01T02:09:46.333Z,4.32
2023-03-01T02:12:13.683Z,1.85
2023-03-01T02:14:40.194Z,0.77
2023-03-01T02:17:06.680Z,1.77
2023-03-01T02:19:36.207Z,1.10
2023-03-01T02:22:02.668Z,3.42
2023-03-01T02:24:47.382Z,1.25
2023-03-01T02:27:14.224Z,0.63
2023-03-01T02:29:40.699Z,0.75
2023-03-01T02:32:07.667Z,0.75
2023-03-01T02:34:34.259Z,0.80
2023-03-01T02:37:10.681Z,4.60
2023-03-01T02:39:43.518Z,2.75
2023-03-01T02:42:15.974Z,1.17
2023-03-01T02:44:42.481Z,0.82
2023-03-01T02:47:09.068Z,1.23
2023-03-01T02:49:36.567Z,1.60
2023-03-01T02:52:03.663Z,2.00
2023-03-01T02:54:50.405Z,1.83
2023-03-01T02:57:16.960Z,5.97
2023-03-01T02:59:44.025Z,4.70
2023-03-01T03:02:39.623Z,3.30
2023-03-01T03:05:10.937Z,2.65
2023-03-01T03:07:38.500Z,2.15
2023-03-01T03:10:06.363Z,2.38
2023-03-01T03:12:33.256Z,3.13
2023-03-01T03:14:59.736Z,2.10
2023-03-01T03:17:26.425Z,3.78
2023-03-01T03:19:52.933Z,2.22
2023-03-01T03:22:19.428Z,3.53
2023-03-01T03:24:45.926Z,5.50
2023-03-01T03:27:12.488Z,2.00
2023-03-01T03:29:39.009Z,2.20
2023-03-01T03:32:05.577Z,1.00
2023-03-01T03:34:32.279Z,5.28
2023-03-01T03:37:00.446Z,1.60
2023-03-01T03:39:28.065Z,2.17
2023-03-01T03:41:54.750Z,6.68
2023-03-01T03:44:21.642Z,4.60
2023-03-01T03:46:48.122Z,6.53
2023-03-01T03:49:14.626Z,1.77
2023-03-01T03:51:41.206Z,2.75
2023-03-01T03:54:07.714Z,4.38
2023-03-01T03:56:34.459Z,2.40
2023-03-01T03:59:01.148Z,4.60
2023-03-01T04:01:27.667Z,2.83
2023-03-01T04:03:55.551Z,2.40
2023-03-01T04:06:22.267Z,2.75
2023-03-01T04:08:52.101Z,4.97
2023-03-01T04:11:27.787Z,6.78
2023-03-01T04:13:55.431Z,1.70
2023-03-01T04:16:22.072Z,2.42
2023-03-01T04:18:48.658Z,1.95
2023-03-01T04:21:15.189Z,3.78
2023-03-01T04:23:44.560Z,3.55
2023-03-01T04:26:11.041Z,2.22
2023-03-01T04:28:39.365Z,3.55
2023-03-01T04:31:18.397Z,1.75
2023-03-01T04:33:53.566Z,3.55
2023-03-01T04:36:21.818Z,4.35
2023-03-01T04:38:48.557Z,1.23
2023-03-01T04:41:16.342Z,2.67
2023-03-01T04:43:43.097Z,0.73
2023-03-01T04:46:13.922Z,2.90
2023-03-01T04:48:42.682Z,1.40
2023-03-01T04:51:09.624Z,2.50
2023-03-01T04:53:39.295Z,1.17
2023-03-01T04:56:06.072Z,1.25
2023-03-01T04:58:32.727Z,0.77
2023-03-01T05:00:59.584Z,0.65
2023-03-01T05:03:26.165Z,2.30
2023-03-01T05:05:53.542Z,3.72
2023-03-01T05:08:20.132Z,1.85
2023-03-01T05:10:50.565Z,2.22
2023-03-01T05:13:22.054Z,5.50
2023-03-01T05:15:55.491Z,2.58
2023-03-01T05:18:22.184Z,2.45
2023-03-01T05:20:48.733Z,2.08
2023-03-01T05:23:15.220Z,1.23
2023-03-01T05:25:41.704Z,3.78
2023-03-01T05:28:11.649Z,3.75
2023-03-01T05:30:40.204Z,3.50
2023-03-01T05:33:11.448Z,2.85
2023-03-01T05:35:38.100Z,2.97
2023-03-01T05:38:04.630Z,3.17
2023-03-01T05:40:31.233Z,1.50
2023-03-01T05:42:58.240Z,3.45
2023-03-01T05:45:26.126Z,4.30
2023-03-01T05:47:52.924Z,6.47
2023-03-01T05:50:23.638Z,5.22
2023-03-01T05:52:51.696Z,2.35
2023-03-01T05:55:19.053Z,9.43
2023-03-01T05:57:45.650Z,4.63
2023-03-01T06:00:12.938Z,3.38
2023-03-01T06:02:40.015Z,3.17
2023-03-01T06:05:07.968Z,3.00
2023-03-01T06:07:34.970Z,4.82
2023-03-01T06:10:01.672Z,3.05
2023-03-01T06:12:31.417Z,6.88
2023-03-01T06:14:57.928Z,3.40
2023-03-01T06:17:24.411Z,6.57
2023-03-01T06:19:50.891Z,4.03
2023-03-01T06:22:17.401Z,3.70
2023-03-01T06:24:43.910Z,7.63
2023-03-01T06:27:10.438Z,3.05
2023-03-01T06:29:36.922Z,7.43
2023-03-01T06:32:03.970Z,6.70
2023-03-01T06:34:30.766Z,5.13
2023-03-01T06:36:57.333Z,5.10
2023-03-01T06:39:23.904Z,3.28
2023-03-01T06:41:50.444Z,4.63
2023-03-01T06:44:16.989Z,4.82
2023-03-01T06:46:43.564Z,8.55
2023-03-01T06:49:10.572Z,3.60
2023-03-01T06:51:38.124Z,5.45
2023-03-01T06:54:07.730Z,6.03
2023-03-01T06:56:34.474Z,1.13
2023-03-01T06:59:01.168Z,1.92
2023-03-01T07:01:27.747Z,3.05
2023-03-01T07:03:54.317Z,4.35
2023-03-01T07:06:21.126Z,1.23
2023-03-01T07:08:47.832Z,2.78
2023-03-01T07:11:14.629Z,2.50
2023-03-01T07:13:41.134Z,1.15
2023-03-01T07:16:07.887Z,5.40
2023-03-01T07:18:34.486Z,2.05
2023-03-01T07:21:12.381Z,0.82
2023-03-01T07:23:38.897Z,1.95
2023-03-01T07:26:05.842Z,2.03
2023-03-01T07:28:32.438Z,2.63
2023-03-01T07:31:03.370Z,1.13
2023-03-01T07:33:30.040Z,3.00
2023-03-01T07:35:57.284Z,1.00
2023-03-01T07:38:24.137Z,0.95
2023-03-01T07:40:50.632Z,3.25
2023-03-01T07:43:17.139Z,3.13
2023-03-01T07:45:43.750Z,1.38
2023-03-01T07:48:10.758Z,1.02
2023-03-01T07:50:37.237Z,3.47
2023-03-01T07:53:03.882Z,1.20
2023-03-01T07:55:30.414Z,1.58
2023-03-01T07:57:56.929Z,2.85
2023-03-01T08:00:23.593Z,2.33
2023-03-01T08:02:50.125Z,3.03
2023-03-01T08:05:16.790Z,1.20
2023-03-01T08:07:43.307Z,4.47
2023-03-01T08:10:10.183Z,1.52
2023-03-01T08:12:36.665Z,1.20
2023-03-01T08:15:03.233Z,0.90
2023-03-01T08:17:29.808Z,1.92
2023-03-01T08:19:56.488Z,3.08
2023-03-01T08:22:22.970Z,3.45
2023-03-01T08:24:49.484Z,2.85
2023-03-01T08:27:16.610Z,2.85
2023-03-01T08:29:43.100Z,1.48
2023-03-01T08:32:09.748Z,1.30
2023-03-01T08:34:36.696Z,1.77
2023-03-01T08:37:03.295Z,3.70
2023-03-01T08:39:30.132Z,3.10
2023-03-01T08:41:56.699Z,2.40
2023-03-01T08:44:23.293Z,1.73
2023-03-01T08:46:51.087Z,1.65
2023-03-01T08:49:18.499Z,10.30
2023-03-01T08:51:45.394Z,21.05
2023-03-01T08:54:13.001Z,10.70
2023-03-01T08:56:39.670Z,6.05
2023-03-01T08:59:06.300Z,6.78
2023-03-01T09:01:32.873Z,3.97
2023-03-01T09:03:59.609Z,3.03
2023-03-01T09:06:26.398Z,4.50
2023-03-01T09:08:53.062Z,2.90
2023-03-01T09:11:20.936Z,2.90
2023-03-01T09:13:48.854Z,2.33
2023-03-01T09:16:20.208Z,3.75
2023-03-01T09:18:49.724Z,1.73
2023-03-01T09:21:18.287Z,1.95
2023-03-01T09:23:46.686Z,2.95
2023-03-01T09:26:15.619Z,0.75
2023-03-01T09:28:42.216Z,3.20
2023-03-01T09:31:08.710Z,1.88
2023-03-01T09:33:35.620Z,1.80
2023-03-01T09:36:03.857Z,4.05
2023-03-01T09:38:31.075Z,2.20
2023-03-01T09:40:57.741Z,0.93
2023-03-01T09:43:24.490Z,2.95
2023-03-01T09:45:52.693Z,2.60
2023-03-01T09:48:25.002Z,4.50
2023-03-01T09:50:52.167Z,5.38
2023-03-01T09:53:29.434Z,5.07
2023-03-01T09:55:59.601Z,3.47
2023-03-01T09:58:36.248Z,2.25
2023-03-01T10:01:25.787Z,3.67
2023-03-01T10:04:12.571Z,1.67
2023-03-01T10:06:39.638Z,2.10
2023-03-01T10:09:14.633Z,4.72
2023-03-01T10:11:49.641Z,6.50
2023-03-01T10:14:37.770Z,2.22
2023-03-01T10:17:06.210Z,4.65
2023-03-01T10:19:38.906Z,2.17
2023-03-01T10:22:14.568Z,2.10
2023-03-01T10:24:41.178Z,1.70
2023-03-01T10:27:27.911Z,1.27
2023-03-01T10:30:08.276Z,7.80
2023-03-01T10:32:35.390Z,3.53
2023-03-01T10:35:02.220Z,3.95
2023-03-01T10:37:29.419Z,2.55
2023-03-01T10:39:55.957Z,6.70
2023-03-01T10:42:36.514Z,3.20
2023-03-01T10:45:17.208Z,3.72
2023-03-01T10:47:43.810Z,1.98
2023-03-01T10:50:23.444Z,2.25
2023-03-01T10:53:00.873Z,3.65
2023-03-01T10:55:47.633Z,4.68
2023-03-01T10:58:20.161Z,5.45
2023-03-01T11:00:53.691Z,3.45
2023-03-01T11:03:25.761Z,1.10
2023-03-01T11:05:58.492Z,2.22
2023-03-01T11:08:34.776Z,3.78
2023-03-01T11:11:06.113Z,4.55
2023-03-01T11:13:32.736Z,1.75
2023-03-01T11:16:07.863Z,0.95
2023-03-01T11:18:47.114Z,2.42
2023-03-01T11:21:15.995Z,3.15
2023-03-01T11:23:44.292Z,2.40
2023-03-01T11:26:12.915Z,1.02
2023-03-01T11:28:41.302Z,3.42
2023-03-01T11:31:20.096Z,3.47
2023-03-01T11:34:00.862Z,3.50
2023-03-01T11:36:36.487Z,3.00
2023-03-01T11:39:04.819Z,1.15
2023-03-01T11:41:33.170Z,3.25
2023-03-01T11:44:05.008Z,7.32
2023-03-01T11:46:43.927Z,9.02
2023-03-01T11:49:15.445Z,2.63
2023-03-01T11:52:00.421Z,6.30
2023-03-01T11:54:33.094Z,2.65
2023-03-01T11:57:08.927Z,1.63
2023-03-01T11:59:35.563Z,4.25
2023-03-01T12:02:11.004Z,1.73
2023-03-01T12:04:52.931Z,3.47
2023-03-01T12:07:28.537Z,2.92
2023-03-01T12:10:04.032Z,2.05
2023-03-01T12:12:38.847Z,4.65
2023-03-01T12:15:12.871Z,5.78
2023-03-01T12:18:00.656Z,4.40
2023-03-01T12:20:30.602Z,2.65
2023-03-01T12:23:20.102Z,2.90
2023-03-01T12:26:05.778Z,6.70
2023-03-01T12:28:46.629Z,2.35
2023-03-01T12:31:13.163Z,3.53
2023-03-01T12:33:58.498Z,6.15
2023-03-01T12:36:28.095Z,3.47
2023-03-01T12:39:06.425Z,5.15
2023-03-01T12:41:51.470Z,3.88
2023-03-01T12:44:36.721Z,4.90
2023-03-01T12:47:03.201Z,3.42
2023-03-01T12:49:33.042Z,4.32
2023-03-01T12:52:02.567Z,4.47
2023-03-01T12:54:33.799Z,3.80
2023-03-01T12:57:20.536Z,4.20
2023-03-01T13:00:10.687Z,4.20
2023-03-01T13:02:40.397Z,4.60
2023-03-01T13:05:16.013Z,6.57
2023-03-01T13:07:52.574Z,5.00
2023-03-01T13:10:23.895Z,3.88
2023-03-01T13:12:50.533Z,2.83
2023-03-01T13:15:23.288Z,6.72
2023-03-01T13:17:50.826Z,1.65
2023-03-01T13:20:21.301Z,8.10
2023-03-01T13:22:54.792Z,5.05
2023-03-01T13:25:22.201Z,3.70
2023-03-01T13:27:49.631Z,3.28
2023-03-01T13:30:34.532Z,8.40
2023-03-01T13:33:19.787Z,6.30
2023-03-01T13:35:46.389Z,6.15
2023-03-01T13:38:31.659Z,4.55
2023-03-01T13:41:00.180Z,3.55
2023-03-01T13:43:31.210Z,7.30
2023-03-01T13:45:58.655Z,4.60
2023-03-01T13:48:26.857Z,6.95
2023-03-01T13:51:01.974Z,9.20
2023-03-01T13:53:30.964Z,6.55
2023-03-01T13:56:23.919Z,2.72
2023-03-01T13:58:52.900Z,2.97
2023-03-01T14:01:24.284Z,6.43
2023-03-01T14:03:50.923Z,4.10
2023-03-01T14:06:21.273Z,4.30
2023-03-01T14:08:48.684Z,9.60
2023-03-01T14:11:26.954Z,7.47
2023-03-01T14:13:53.394Z,6.43
2023-03-01T14:16:19.834Z,7.90
2023-03-01T14:18:53.686Z,6.50
2023-03-01T14:23:47.862Z,26.77
2023-03-01T14:26:14.413Z,7.72
2023-03-01T14:28:43.225Z,24.42
2023-03-01T14:31:28.494Z,10.52
2023-03-01T14:33:56.533Z,35.80
2023-03-01T14:36:28.177Z,20.20
2023-03-01T14:38:55.400Z,10.40
2023-03-01T14:41:26.784Z,6.13
2023-03-01T14:43:54.937Z,8.27
2023-03-01T14:46:22.745Z,7.30
2023-03-01T14:48:50.528Z,5.55
2023-03-01T14:51:17.117Z,5.28
2023-03-01T14:53:50.923Z,9.18
2023-03-01T14:56:20.823Z,7.82
2023-03-01T14:58:50.731Z,8.35
2023-03-01T15:01:18.353Z,10.93
2023-03-01T15:03:46.981Z,2.83
2023-03-01T15:06:16.875Z,4.70
2023-03-01T15:08:46.006Z,5.65
2023-03-01T15:11:25.592Z,8.45
2023-03-01T15:13:53.354Z,4.30
2023-03-01T15:16:21.507Z,3.90
2023-03-01T15:18:49.588Z,6.68
2023-03-01T15:21:18.199Z,5.78
2023-03-01T15:23:49.343Z,7.32
2023-03-01T15:26:24.201Z,11.30
2023-03-01T15:28:51.539Z,11.65
2023-03-01T15:31:23.812Z,8.57
2023-03-01T15:33:50.917Z,5.13
2023-03-01T15:36:32.711Z,8.70
2023-03-01T15:39:00.694Z,3.33
2023-03-01T15:41:38.565Z,9.40
2023-03-01T15:44:26.189Z,3.78
2023-03-01T15:46:53.466Z,8.55
2023-03-01T15:49:49.551Z,7.93
2023-03-01T15:52:40.587Z,3.75
2023-03-01T15:55:15.206Z,3.70
2023-03-01T15:57:41.764Z,2.97
2023-03-01T16:00:14.488Z,1.80
2023-03-01T16:02:41.928Z,4.80
2023-03-01T16:05:24.283Z,0.52
2023-03-01T16:07:51.520Z,4.35
2023-03-01T16:10:18.367Z,2.55
2023-03-01T16:12:44.982Z,2.67
2023-03-01T16:15:29.523Z,2.78
2023-03-01T16:17:59.139Z,1.55
2023-03-01T16:20:29.066Z,5.80
2023-03-01T16:22:59.486Z,3.13
2023-03-01T16:25:26.363Z,4.30
2023-03-01T16:27:53.194Z,5.97
2023-03-01T16:30:20.997Z,1.88
2023-03-01T16:32:48.417Z,5.38
2023-03-01T16:35:15.920Z,4.07
2023-03-01T16:37:43.078Z,3.53
2023-03-01T16:40:27.896Z,5.18
2023-03-01T16:42:56.298Z,4.00
2023-03-01T16:45:24.710Z,4.60
2023-03-01T16:47:54.442Z,4.15
2023-03-01T16:50:22.120Z,4.63
2023-03-01T16:52:48.665Z,3.22
2023-03-01T16:55:15.210Z,5.93
2023-03-01T16:57:41.801Z,6.75
2023-03-01T17:00:14.287Z,6.82
2023-03-01T17:02:42.093Z,3.65
2023-03-01T17:05:09.141Z,3.50
2023-03-01T17:07:35.855Z,8.90
2023-03-01T17:10:03.195Z,15.65
2023-03-01T17:12:29.716Z,33.00
2023-03-01T17:14:56.228Z,17.77
2023-03-01T17:17:22.807Z,17.15
2023-03-01T17:19:49.356Z,24.90
2023-03-01T17:22:16.295Z,14.23
2023-03-01T17:24:43.242Z,16.77
2023-03-01T17:27:09.989Z,12.35
2023-03-01T17:29:38.254Z,11.13
2023-03-01T17:32:05.077Z,6.15
2023-03-01T17:34:32.353Z,4.85
2023-03-01T17:36:59.068Z,10.93
2023-03-01T17:39:29.350Z,9.05
2023-03-01T17:41:57.545Z,7.35
2023-03-01T17:44:24.116Z,9.50
2023-03-01T17:46:50.644Z,11.93
2023-03-01T17:49:18.313Z,14.57
2023-03-01T17:51:45.690Z,6.18
2023-03-01T17:54:12.378Z,7.70
2023-03-01T17:56:39.062Z,11.43
2023-03-01T17:59:06.862Z,10.30
2023-03-01T18:01:35.791Z,10.43
2023-03-01T18:04:02.464Z,14.75
2023-03-01T18:06:29.202Z,9.15
2023-03-01T18:08:56.415Z,10.82
2023-03-01T18:11:23.530Z,9.07
2023-03-01T18:13:51.181Z,9.65
2023-03-01T18:16:19.201Z,11.68
2023-03-01T18:18:45.909Z,5.10
2023-03-01T18:21:12.806Z,12.23
2023-03-01T18:23:39.789Z,10.90
2023-03-01T18:26:17.778Z,13.45
2023-03-01T18:28:47.578Z,11.63
2023-03-01T18:31:18.249Z,8.05
2023-03-01T18:33:45.373Z,11.52
2023-03-01T18:36:20.060Z,17.45
2023-03-01T18:38:46.682Z,13.50
2023-03-01T18:41:13.242Z,11.90
2023-03-01T18:43:39.730Z,11.98
2023-03-01T18:46:06.265Z,9.75
2023-03-01T18:48:32.874Z,8.32
2023-03-01T18:51:07.270Z,10.35
2023-03-01T18:53:33.769Z,10.32
2023-03-01T18:56:00.313Z,14.65
2023-03-01T18:58:26.886Z,15.18
2023-03-01T19:00:53.477Z,15.90
2023-03-01T19:03:20.009Z,18.95
2023-03-01T19:05:46.512Z,22.17
2023-03-01T19:08:13.015Z,14.52
2023-03-01T19:10:39.542Z,17.00
2023-03-01T19:13:06.399Z,13.27
2023-03-01T19:15:33.807Z,19.42
2023-03-01T19:18:02.420Z,13.95
2023-03-01T19:20:30.291Z,14.68
2023-03-01T19:22:58.062Z,16.13
2023-03-01T19:25:25.184Z,16.65
2023-03-01T19:27:52.466Z,14.70
2023-03-01T19:30:20.268Z,9.02
2023-03-01T19:32:49.405Z,18.05
2023-03-01T19:35:17.921Z,18.23
2023-03-01T19:37:45.557Z,18.25
2023-03-01T19:40:13.619Z,24.88
2023-03-01T19:42:40.468Z,16.73
2023-03-01T19:45:07.842Z,15.10
2023-03-01T19:47:34.601Z,14.63
2023-03-01T19:50:02.563Z,16.02
2023-03-01T19:52:30.400Z,16.02
2023-03-01T19:55:07.419Z,18.38
2023-03-01T19:57:36.868Z,15.70
2023-03-01T20:00:05.273Z,12.55
2023-03-01T20:02:33.043Z,14.32
2023-03-01T20:05:00.482Z,21.83
2023-03-01T20:07:27.598Z,16.70
2023-03-01T20:09:54.261Z,22.20
2023-03-01T20:12:21.469Z,23.55
2023-03-01T20:14:51.322Z,23.23
2023-03-01T20:17:19.279Z,13.55
2023-03-01T20:19:47.681Z,27.60
2023-03-01T20:22:15.156Z,21.77
2023-03-01T20:24:42.054Z,20.05
2023-03-01T20:27:08.693Z,25.90
2023-03-01T20:29:35.221Z,28.27
2023-03-01T20:32:02.777Z,24.88
2023-03-01T20:34:30.124Z,22.92
2023-03-01T20:37:05.714Z,23.38
2023-03-01T20:39:32.347Z,25.15
2023-03-01T20:41:59.126Z,22.88
2023-03-01T20:44:25.676Z,25.30
2023-03-01T20:46:52.313Z,27.17
2023-03-01T20:49:18.863Z,21.17
2023-03-01T20:51:45.474Z,21.50
2023-03-01T20:54:11.975Z,14.85
2023-03-01T20:56:38.457Z,17.88
2023-03-01T20:59:06.451Z,23.70
2023-03-01T21:01:35.183Z,20.60
2023-03-01T21:04:02.048Z,23.88
2023-03-01T21:06:28.854Z,33.90
2023-03-01T21:08:55.948Z,26.45
2023-03-01T21:11:25.594Z,21.20
2023-03-01T21:14:00.118Z,25.05
2023-03-01T21:16:26.784Z,26.83
2023-03-01T21:18:54.776Z,23.23
2023-03-01T21:21:22.749Z,22.25
2023-03-01T21:23:49.268Z,28.75
2023-03-01T21:26:20.002Z,21.90
2023-03-01T21:28:47.212Z,24.35
2023-03-01T21:31:15.068Z,17.60
2023-03-01T21:33:44.307Z,27.52
2023-03-01T21:36:10.948Z,30.58
2023-03-01T21:38:40.135Z,19.23
2023-03-01T21:41:08.407Z,30.42
2023-03-01T21:43:35.848Z,26.00
2023-03-01T21:46:03.801Z,16.73
2023-03-01T21:48:30.965Z,25.92
2023-03-01T21:51:00.981Z,28.13
2023-03-01T21:53:29.401Z,24.50
2023-03-01T21:55:55.914Z,25.85
2023-03-01T21:58:22.548Z,26.30
2023-03-01T22:00:49.383Z,22.92
2023-03-01T22:03:16.442Z,25.35
2023-03-01T22:05:43.018Z,42.00
2023-03-01T22:08:09.748Z,46.08
2023-03-01T22:10:39.286Z,37.25
2023-03-01T22:13:05.770Z,28.35
2023-03-01T22:15:32.276Z,36.72
2023-03-01T22:17:58.794Z,27.75
2023-03-01T22:20:25.498Z,31.58
2023-03-01T22:22:52.037Z,28.60
2023-03-01T22:25:18.957Z,31.58
2023-03-01T22:27:45.485Z,22.88
2023-03-01T22:30:12.228Z,21.70
2023-03-01T22:32:38.885Z,31.33
2023-03-01T22:35:05.802Z,23.25
2023-03-01T22:37:32.341Z,23.42
2023-03-01T22:39:58.875Z,27.35
2023-03-01T22:42:25.408Z,21.30
2023-03-01T22:44:51.950Z,22.05
2023-03-01T22:47:18.501Z,18.35
2023-03-01T22:49:45.150Z,22.58
2023-03-01T22:52:11.714Z,19.40
2023-03-01T22:54:38.271Z,17.23
2023-03-01T22:57:04.822Z,16.65
2023-03-01T22:59:31.304Z,16.50
2023-03-01T23:01:57.873Z,14.50
2023-03-01T23:04:24.511Z,21.30
2023-03-01T23:06:51.811Z,17.42
2023-03-01T23:09:19.329Z,19.10
2023-03-01T23:11:45.890Z,14.27
2023-03-01T23:14:12.460Z,17.05
2023-03-01T23:16:39.061Z,19.98
2023-03-01T23:19:05.583Z,23.48
2023-03-01T23:21:33.066Z,25.35
2023-03-01T23:23:59.730Z,23.92
2023-03-01T23:26:27.036Z,11.95
2023-03-01T23:28:54.661Z,13.18
2023-03-01T23:31:21.261Z,13.27
2023-03-01T23:33:48.247Z,21.05
2023-03-01T23:36:14.792Z,7.53
2023-03-01T23:38:41.510Z,20.00
2023-03-01T23:41:11.594Z,12.63
2023-03-01T23:43:38.145Z,9.48
2023-03-01T23:46:05.147Z,11.25
2023-03-01T23:48:31.665Z,13.68
2023-03-01T23:51:03.295Z,17.90
2023-03-01T23:53:29.806Z,9.90
2023-03-01T23:55:56.574Z,19.35
2023-03-01T23:58:28.606Z,14.88
